Time;durP1;ratioP1;P1;durP2;ratioP2;P2;SDS_P1;SDS_P2;PMS_P1;PMS_P2;Temp;Humidity;BMP_temperature;BMP_pressure;BME280_temperature;BME280_humidity;BME280_pressure;Samples;Min_cycle;Max_cycle;Signal;HPM_P1;HPM_P2
2022/06/20 00:01:23;;;;;;;17.20;9.63;;;21.20;99.90;;;;;;5074152;28;20230;-76
2022/06/20 00:03:52;;;;;;;19.53;10.20;;;21.10;99.90;;;;;;5071556;28;20207;-77
2022/06/20 00:06:24;;;;;;;20.63;10.73;;;21.10;99.90;;;;;;5072156;28;20215;-76
2022/06/20 00:08:53;;;;;;;16.93;10.33;;;21.00;99.90;;;;;;5071091;28;20212;-77
2022/06/20 00:11:24;;;;;;;16.93;10.43;;;21.00;99.90;;;;;;5082586;28;20242;-76
2022/06/20 00:13:55;;;;;;;20.97;10.27;;;21.00;99.90;;;;;;5077403;28;20718;-75
2022/06/20 00:16:24;;;;;;;19.97;10.67;;;20.90;99.90;;;;;;5080720;28;20298;-77
2022/06/20 00:18:53;;;;;;;20.83;10.20;;;20.80;99.90;;;;;;5076666;28;20211;-77
2022/06/20 00:21:23;;;;;;;16.40;10.40;;;20.80;99.90;;;;;;5073650;28;20261;-77
2022/06/20 00:23:52;;;;;;;18.47;10.73;;;20.80;99.90;;;;;;5076302;28;20675;-76
2022/06/20 00:26:20;;;;;;;18.80;10.00;;;20.80;99.90;;;;;;5081203;28;20215;-73
2022/06/20 00:28:49;;;;;;;18.87;10.40;;;20.70;99.90;;;;;;5084993;28;20203;-77
2022/06/20 00:31:18;;;;;;;20.00;10.03;;;20.70;99.90;;;;;;5081720;28;20235;-77
2022/06/20 00:33:46;;;;;;;16.77;10.00;;;20.70;99.90;;;;;;5082330;28;20203;-76
2022/06/20 00:36:15;;;;;;;18.23;10.13;;;20.60;99.90;;;;;;5080762;28;20327;-77
2022/06/20 00:38:46;;;;;;;18.57;10.63;;;20.60;99.90;;;;;;5080686;28;20212;-79
2022/06/20 00:41:18;;;;;;;16.87;9.97;;;20.50;99.90;;;;;;5079442;28;20207;-77
2022/06/20 00:43:48;;;;;;;19.13;10.90;;;20.50;99.90;;;;;;5078574;28;20286;-76
2022/06/20 00:46:28;;;;;;;20.27;10.77;;;20.50;99.90;;;;;;5064267;28;20223;-78
2022/06/20 00:49:02;;;;;;;18.93;10.37;;;20.50;99.90;;;;;;5076483;28;20218;-77
2022/06/20 00:51:37;;;;;;;22.27;11.13;;;20.50;99.90;;;;;;5069881;28;20285;-76
2022/06/20 00:54:14;;;;;;;20.60;10.33;;;20.50;99.90;;;;;;5076409;28;20286;-76
2022/06/20 00:56:53;;;;;;;18.20;10.57;;;20.50;99.90;;;;;;5074810;28;20207;-77
2022/06/20 00:59:26;;;;;;;19.07;10.43;;;20.50;99.90;;;;;;5074321;28;20227;-78
2022/06/20 01:01:56;;;;;;;16.80;10.77;;;20.50;99.90;;;;;;5079900;28;21012;-76
2022/06/20 01:04:32;;;;;;;16.40;10.70;;;20.50;99.90;;;;;;5083325;28;20572;-74
2022/06/20 01:07:03;;;;;;;17.60;10.30;;;20.50;99.90;;;;;;5075233;28;20234;-76
2022/06/20 01:09:38;;;;;;;20.07;10.47;;;20.40;99.90;;;;;;5082028;28;20762;-76
2022/06/20 01:12:12;;;;;;;18.60;10.50;;;20.40;99.90;;;;;;5078437;28;20294;-76
2022/06/20 01:14:41;;;;;;;17.33;10.53;;;20.30;99.90;;;;;;5082454;28;20194;-75
2022/06/20 01:17:18;;;;;;;15.80;9.80;;;20.30;99.90;;;;;;5070698;28;20703;-75
2022/06/20 01:19:52;;;;;;;17.33;9.83;;;20.30;99.90;;;;;;5079973;28;20195;-78
2022/06/20 01:22:38;;;;;;;16.47;10.27;;;20.30;99.90;;;;;;5073268;28;20212;-74
2022/06/20 01:25:37;;;;;;;24.40;11.50;;;20.20;99.90;;;;;;5079035;28;20235;-75
2022/06/20 01:28:10;;;;;;;14.47;10.20;;;20.20;99.90;;;;;;5079716;28;20208;-75
2022/06/20 01:30:42;;;;;;;20.57;11.10;;;20.10;99.90;;;;;;5081889;28;20215;-77
2022/06/20 01:33:12;;;;;;;16.70;10.93;;;20.10;99.90;;;;;;5072343;28;20242;-76
2022/06/20 01:38:29;;;;;;;18.77;10.93;;;20.00;99.90;;;;;;5067937;28;20734;-79
2022/06/20 01:43:46;;;;;;;16.77;10.30;;;20.00;99.90;;;;;;5068791;28;20208;-77
2022/06/20 01:46:15;;;;;;;16.93;10.53;;;20.00;99.90;;;;;;5067662;28;20203;-76
2022/06/20 01:48:46;;;;;;;15.47;10.40;;;19.90;99.90;;;;;;5067555;28;20724;-76
2022/06/20 01:51:19;;;;;;;18.77;11.30;;;19.90;99.90;;;;;;5072844;28;20235;-76
2022/06/20 01:53:49;;;;;;;16.10;10.47;;;19.90;99.90;;;;;;5073316;28;20755;-77
2022/06/20 01:56:19;;;;;;;16.83;11.07;;;19.90;99.90;;;;;;5073508;28;20203;-78
2022/06/20 01:58:53;;;;;;;17.23;11.13;;;19.80;99.90;;;;;;5073108;28;20630;-77
2022/06/20 02:01:21;;;;;;;20.70;10.30;;;19.80;99.90;;;;;;5078137;28;20237;-76
2022/06/20 02:03:50;;;;;;;17.60;10.27;;;19.80;99.90;;;;;;5081213;28;20211;-76
2022/06/20 02:06:20;;;;;;;19.43;10.40;;;19.80;99.90;;;;;;5089700;28;20203;-73
2022/06/20 02:08:51;;;;;;;20.23;10.47;;;19.80;99.90;;;;;;5076486;28;20238;-75
2022/06/20 02:11:23;;;;;;;20.13;10.83;;;19.80;99.90;;;;;;5078663;28;20254;-74
2022/06/20 02:14:09;;;;;;;17.90;10.93;;;19.80;99.90;;;;;;5074804;28;20247;-75
2022/06/20 02:16:40;;;;;;;17.57;11.30;;;19.90;99.90;;;;;;5070421;28;20298;-75
2022/06/20 02:19:12;;;;;;;21.57;10.77;;;19.90;99.90;;;;;;5073917;28;20203;-77
2022/06/20 02:21:42;;;;;;;15.17;10.23;;;19.90;99.90;;;;;;5074086;28;20778;-78
2022/06/20 02:24:14;;;;;;;22.20;10.67;;;19.90;99.90;;;;;;5076279;28;20235;-77
2022/06/20 02:26:46;;;;;;;17.73;10.63;;;19.80;99.90;;;;;;5075671;28;20246;-77
2022/06/20 02:29:22;;;;;;;16.13;10.30;;;19.80;99.90;;;;;;5074548;28;20214;-76
2022/06/20 02:31:55;;;;;;;15.93;10.47;;;19.70;99.90;;;;;;5074592;28;20273;-77
2022/06/20 02:34:27;;;;;;;21.97;10.43;;;19.70;99.90;;;;;;5067220;28;20257;-76
2022/06/20 02:36:56;;;;;;;17.77;10.80;;;19.70;99.90;;;;;;5068329;28;20721;-77
2022/06/20 02:39:25;;;;;;;17.13;10.57;;;19.70;99.90;;;;;;5066155;28;20257;-77
2022/06/20 02:42:00;;;;;;;18.70;11.00;;;19.70;99.90;;;;;;5065291;28;20269;-78
2022/06/20 02:44:31;;;;;;;18.50;10.77;;;19.60;99.90;;;;;;5083468;28;20238;-74
2022/06/20 02:47:04;;;;;;;21.33;10.97;;;19.60;99.90;;;;;;5077746;28;20211;-75
2022/06/20 02:49:34;;;;;;;17.73;10.53;;;19.60;99.90;;;;;;5076968;28;20243;-76
2022/06/20 02:52:04;;;;;;;20.13;10.93;;;19.60;99.90;;;;;;5076429;28;20285;-77
2022/06/20 02:54:37;;;;;;;17.70;10.73;;;19.50;99.90;;;;;;5071315;28;20684;-76
2022/06/20 02:57:11;;;;;;;19.97;10.97;;;19.50;99.90;;;;;;5076361;28;20236;-78
2022/06/20 02:59:46;;;;;;;21.33;10.50;;;19.50;99.90;;;;;;5079028;28;20238;-76
2022/06/20 03:02:16;;;;;;;22.57;11.03;;;19.40;99.90;;;;;;5074216;28;20291;-79
2022/06/20 03:04:46;;;;;;;16.00;10.53;;;19.50;99.90;;;;;;5074328;28;20637;-76
2022/06/20 03:07:18;;;;;;;20.73;11.17;;;19.40;99.90;;;;;;5074046;28;20267;-74
2022/06/20 03:09:50;;;;;;;14.67;10.20;;;19.40;99.90;;;;;;5075067;28;20204;-76
2022/06/20 03:12:18;;;;;;;22.60;10.57;;;19.40;99.90;;;;;;5072689;28;20269;-74
2022/06/20 03:14:52;;;;;;;18.70;10.23;;;19.40;99.90;;;;;;5072435;28;20670;-77
2022/06/20 03:17:23;;;;;;;18.03;10.47;;;19.50;99.90;;;;;;5067716;28;20254;-75
2022/06/20 03:19:55;;;;;;;16.60;10.87;;;19.40;99.90;;;;;;5079015;28;20253;-77
2022/06/20 03:22:28;;;;;;;21.13;10.27;;;19.50;99.90;;;;;;5077602;28;20576;-76
2022/06/20 03:25:07;;;;;;;21.60;10.60;;;19.50;99.90;;;;;;5086934;28;20617;-75
2022/06/20 03:27:36;;;;;;;19.50;11.20;;;19.50;99.90;;;;;;5067314;28;20287;-77
2022/06/20 03:30:23;;;;;;;19.90;10.77;;;19.50;99.90;;;;;;5070429;28;20813;-77
2022/06/20 03:32:52;;;;;;;17.07;10.13;;;19.60;99.90;;;;;;5070850;28;20617;-78
2022/06/20 03:35:21;;;;;;;21.10;9.63;;;19.60;99.90;;;;;;5080671;28;20635;-76
2022/06/20 03:37:50;;;;;;;22.03;11.00;;;19.60;99.90;;;;;;5081167;28;20246;-78
2022/06/20 03:40:19;;;;;;;18.27;10.23;;;19.60;99.90;;;;;;5067351;28;20219;-76
2022/06/20 03:42:48;;;;;;;16.40;10.10;;;19.60;99.90;;;;;;5079857;28;20203;-76
2022/06/20 03:45:19;;;;;;;16.07;9.77;;;19.60;99.90;;;;;;5076248;28;20640;-76
2022/06/20 03:47:55;;;;;;;19.60;10.60;;;19.60;99.90;;;;;;5071665;28;21144;-76
2022/06/20 03:50:28;;;;;;;20.97;10.40;;;19.70;99.90;;;;;;5071162;28;20298;-77
2022/06/20 03:53:02;;;;;;;17.93;10.10;;;19.70;99.90;;;;;;5076108;28;20751;-75
2022/06/20 03:55:34;;;;;;;17.10;9.97;;;19.80;99.90;;;;;;5070002;28;20278;-80
2022/06/20 03:58:11;;;;;;;17.60;9.83;;;19.80;99.90;;;;;;5071194;28;20231;-77
2022/06/20 04:00:45;;;;;;;20.17;10.03;;;19.90;99.90;;;;;;5077689;28;20285;-78
2022/06/20 04:03:18;;;;;;;18.80;9.93;;;19.90;99.90;;;;;;5070718;28;20261;-77
2022/06/20 04:05:51;;;;;;;20.23;9.70;;;20.00;99.90;;;;;;5075261;28;20203;-77
2022/06/20 04:10:57;;;;;;;18.80;9.80;;;20.00;99.90;;;;;;5070248;28;20304;-75
2022/06/20 04:11:16;;;;;;;16.00;9.73;;;20.10;99.90;;;;;;5071661;28;20296;-75
2022/06/20 04:13:56;;;;;;;19.30;9.70;;;20.10;99.90;;;;;;5076773;28;20200;-75
2022/06/20 04:16:31;;;;;;;15.33;9.53;;;20.20;99.90;;;;;;5073044;28;20286;-75
2022/06/20 04:19:09;;;;;;;22.37;9.70;;;20.30;99.90;;;;;;5080524;28;20203;-79
2022/06/20 04:21:42;;;;;;;20.00;10.03;;;20.40;99.90;;;;;;5083055;28;20242;-77
2022/06/20 04:24:17;;;;;;;22.07;10.00;;;20.50;99.90;;;;;;5085998;28;20291;-79
2022/06/20 04:26:49;;;;;;;18.37;9.43;;;20.50;99.90;;;;;;5082635;28;20199;-77
2022/06/20 04:29:23;;;;;;;16.43;8.33;;;20.60;99.90;;;;;;5084662;28;20252;-76
2022/06/20 04:31:58;;;;;;;18.27;9.57;;;20.70;99.90;;;;;;5072707;28;20701;-77
2022/06/20 04:34:33;;;;;;;17.70;8.67;;;20.80;99.90;;;;;;5074290;28;20776;-76
2022/06/20 04:37:08;;;;;;;16.53;8.37;;;20.90;99.90;;;;;;5078463;28;20337;-76
2022/06/20 04:39:42;;;;;;;22.27;8.67;;;21.00;99.90;;;;;;5075104;28;20268;-72
2022/06/20 04:42:18;;;;;;;18.37;9.10;;;21.20;99.90;;;;;;5074368;28;20239;-77
2022/06/20 04:44:53;;;;;;;15.97;9.00;;;21.30;99.90;;;;;;5069678;28;20245;-76
2022/06/20 04:47:40;;;;;;;17.73;9.07;;;21.50;99.90;;;;;;5072101;28;20565;-75
2022/06/20 04:50:15;;;;;;;21.07;8.67;;;21.80;99.90;;;;;;5073781;28;20207;-74
2022/06/20 04:52:44;;;;;;;19.00;8.60;;;22.00;99.90;;;;;;5074134;28;20227;-75
2022/06/20 04:55:16;;;;;;;19.23;9.23;;;22.20;99.90;;;;;;5074666;28;20657;-76
2022/06/20 04:57:51;;;;;;;18.87;8.27;;;22.40;99.90;;;;;;5074767;28;20203;-77
2022/06/20 05:00:22;;;;;;;19.97;8.63;;;22.70;99.90;;;;;;5074552;28;20280;-77
2022/06/20 05:02:54;;;;;;;20.03;8.03;;;22.90;99.90;;;;;;5085890;28;20199;-75
2022/06/20 05:05:31;;;;;;;17.87;7.90;;;23.00;99.90;;;;;;5072997;28;20211;-74
2022/06/20 05:08:00;;;;;;;16.83;7.77;;;23.10;99.90;;;;;;5085865;28;20282;-74
2022/06/20 05:10:36;;;;;;;20.83;7.90;;;23.20;99.90;;;;;;5064266;28;20307;-76
2022/06/20 05:13:09;;;;;;;21.23;8.07;;;23.40;99.90;;;;;;5081317;28;20869;-77
2022/06/20 05:15:41;;;;;;;16.33;7.60;;;23.50;99.90;;;;;;5075699;28;20576;-77
2022/06/20 05:18:25;;;;;;;16.40;8.20;;;23.50;99.90;;;;;;5079745;28;20211;-77
2022/06/20 05:20:58;;;;;;;19.00;8.37;;;23.50;99.90;;;;;;5077233;28;20239;-77
2022/06/20 05:23:32;;;;;;;17.70;8.47;;;23.60;99.90;;;;;;5075267;28;20200;-75
2022/06/20 05:26:03;;;;;;;16.87;7.93;;;23.60;99.90;;;;;;5075844;28;20206;-73
2022/06/20 05:28:33;;;;;;;22.60;8.33;;;23.70;99.90;;;;;;5072341;28;20610;-75
2022/06/20 05:31:03;;;;;;;20.93;8.57;;;23.80;99.90;;;;;;5081010;28;20199;-75
2022/06/20 05:33:39;;;;;;;27.17;8.07;;;23.70;99.90;;;;;;5080066;28;20211;-77
2022/06/20 05:36:15;;;;;;;23.87;8.93;;;23.80;99.90;;;;;;5076698;28;20203;-73
2022/06/20 05:38:50;;;;;;;20.87;7.80;;;23.80;99.90;;;;;;5073711;28;20335;-76
2022/06/20 05:41:20;;;;;;;22.23;8.30;;;23.80;99.90;;;;;;5072899;28;20243;-79
2022/06/20 05:43:48;;;;;;;22.90;8.30;;;23.90;99.90;;;;;;5069741;28;20240;-75
2022/06/20 05:46:24;;;;;;;22.97;8.07;;;24.10;99.90;;;;;;5073850;28;20618;-76
2022/06/20 05:48:56;;;;;;;20.77;7.40;;;24.20;99.90;;;;;;5078542;28;20234;-78
2022/06/20 05:51:26;;;;;;;17.23;7.60;;;24.40;99.90;;;;;;5067752;28;20314;-76
2022/06/20 05:53:59;;;;;;;21.37;7.27;;;24.70;99.90;;;;;;5074799;28;20310;-76
2022/06/20 05:56:31;;;;;;;17.97;7.43;;;25.30;99.90;;;;;;5073046;28;20289;-77
2022/06/20 05:59:01;;;;;;;18.43;7.43;;;25.50;99.90;;;;;;5061442;28;20704;-75
2022/06/20 06:01:32;;;;;;;27.30;7.60;;;25.40;99.90;;;;;;5066735;28;20290;-76
2022/06/20 06:04:13;;;;;;;23.03;7.40;;;25.40;99.90;;;;;;5067176;28;20662;-76
2022/06/20 06:06:46;;;;;;;20.53;7.43;;;25.20;99.90;;;;;;5072642;28;20211;-76
2022/06/20 06:09:20;;;;;;;35.63;8.27;;;25.00;99.90;;;;;;5072974;28;20571;-77
2022/06/20 06:11:56;;;;;;;33.20;8.70;;;25.30;99.90;;;;;;5069740;28;20298;-77
2022/06/20 06:14:30;;;;;;;28.40;8.10;;;26.10;99.90;;;;;;5063757;28;20211;-77
2022/06/20 06:17:05;;;;;;;21.77;7.27;;;26.50;99.90;;;;;;5071257;28;20613;-77
2022/06/20 06:19:57;;;;;;;17.23;6.63;;;26.60;99.90;;;;;;5070558;28;20210;-77
2022/06/20 06:22:29;;;;;;;16.53;7.40;;;26.60;99.90;;;;;;5070813;28;20298;-76
2022/06/20 06:25:00;;;;;;;16.23;6.83;;;26.60;99.90;;;;;;5071477;28;20206;-78
2022/06/20 06:27:34;;;;;;;23.97;7.13;;;26.30;99.90;;;;;;5066626;28;20735;-77
2022/06/20 06:30:04;;;;;;;21.33;7.63;;;26.10;99.90;;;;;;5072717;28;20243;-76
2022/06/20 06:32:41;;;;;;;22.50;7.60;;;25.90;99.90;;;;;;5071030;28;20273;-77
2022/06/20 06:35:20;;;;;;;18.43;7.10;;;25.60;99.90;;;;;;5070395;28;20199;-76
2022/06/20 06:37:54;;;;;;;18.40;7.10;;;25.50;99.90;;;;;;5072014;28;20835;-76
2022/06/20 06:40:30;;;;;;;23.40;6.87;;;25.80;99.90;;;;;;5076308;28;20250;-79
2022/06/20 06:43:00;;;;;;;23.20;7.10;;;26.40;99.90;;;;;;5076127;28;20262;-74
2022/06/20 06:45:33;;;;;;;20.33;7.00;;;26.50;99.90;;;;;;5077642;28;20300;-74
2022/06/20 06:48:06;;;;;;;22.00;6.57;;;26.30;99.90;;;;;;5065761;28;20223;-78
2022/06/20 06:50:41;;;;;;;16.67;6.80;;;26.00;99.90;;;;;;5076028;28;20214;-77
2022/06/20 06:53:14;;;;;;;14.97;7.20;;;25.70;99.90;;;;;;5074637;28;20259;-78
2022/06/20 06:55:46;;;;;;;18.70;7.53;;;25.50;99.90;;;;;;5078721;28;20207;-77
2022/06/20 06:58:27;;;;;;;19.47;7.30;;;25.30;99.90;;;;;;5072107;28;20234;-77
2022/06/20 07:01:00;;;;;;;16.40;7.10;;;25.20;99.90;;;;;;5073147;28;20273;-79
2022/06/20 07:03:37;;;;;;;15.87;7.27;;;25.10;99.90;;;;;;5066955;28;20203;-77
2022/06/20 07:06:16;;;;;;;19.20;7.60;;;25.20;99.90;;;;;;5071233;28;20293;-78
2022/06/20 07:09:11;;;;;;;15.53;6.70;;;25.50;99.90;;;;;;5070589;28;20212;-75
2022/06/20 07:11:48;;;;;;;18.93;6.87;;;26.50;99.90;;;;;;5070521;28;20681;-75
2022/06/20 07:14:20;;;;;;;20.13;7.20;;;27.60;99.90;;;;;;5069375;28;20223;-79
2022/06/20 07:17:04;;;;;;;19.00;6.97;;;28.30;99.90;;;;;;5080518;28;20206;-81
2022/06/20 07:19:33;;;;;;;16.93;6.47;;;28.70;99.90;;;;;;5064007;28;20668;-78
2022/06/20 07:22:03;;;;;;;18.95;7.20;;;29.20;99.90;;;;;;5072515;28;20211;-78
2022/06/20 07:24:35;;;;;;;16.73;6.60;;;30.40;99.90;;;;;;5073014;28;20231;-76
2022/06/20 07:27:09;;;;;;;14.77;6.38;;;31.30;97.30;;;;;;5073928;28;20282;-77
2022/06/20 07:29:46;;;;;;;18.88;6.05;;;31.90;98.30;;;;;;5069379;28;20253;-77
2022/06/20 07:32:20;;;;;;;16.73;6.28;;;32.00;96.00;;;;;;5072913;28;20278;-79
2022/06/20 07:34:54;;;;;;;17.55;6.15;;;31.90;94.10;;;;;;5075664;28;20211;-80
2022/06/20 07:37:29;;;;;;;17.63;5.95;;;31.90;93.80;;;;;;5077098;28;20209;-78
2022/06/20 07:40:03;;;;;;;14.35;6.25;;;32.30;94.50;;;;;;5074427;28;20277;-76
2022/06/20 07:42:37;;;;;;;13.50;5.63;;;32.90;93.20;;;;;;5075700;28;20231;-78
2022/06/20 07:45:17;;;;;;;17.38;5.82;;;33.40;92.90;;;;;;5070239;28;20631;-79
2022/06/20 07:47:51;;;;;;;15.30;5.70;;;33.10;92.00;;;;;;5067169;28;20207;-78
2022/06/20 07:50:25;;;;;;;18.85;6.00;;;32.30;93.20;;;;;;5068975;28;20223;-77
2022/06/20 07:53:10;;;;;;;13.77;5.60;;;31.00;93.20;;;;;;5064995;28;20612;-77
2022/06/20 07:55:44;;;;;;;15.27;5.78;;;30.30;95.80;;;;;;5069805;28;20290;-78
2022/06/20 07:58:22;;;;;;;15.95;5.35;;;29.70;95.50;;;;;;5064199;28;20205;-79
2022/06/20 08:00:52;;;;;;;16.88;5.28;;;29.20;95.80;;;;;;5067226;28;20723;-77
2022/06/20 08:03:26;;;;;;;15.07;5.45;;;28.70;98.50;;;;;;5075192;28;20741;-78
2022/06/20 08:05:59;;;;;;;14.02;5.28;;;28.40;99.10;;;;;;5073388;28;20210;-77
2022/06/20 08:08:37;;;;;;;17.03;4.83;;;28.30;96.50;;;;;;5078080;28;20793;-74
2022/06/20 08:11:11;;;;;;;13.90;5.40;;;28.30;98.70;;;;;;5076936;28;20234;-77
2022/06/20 08:13:47;;;;;;;13.53;5.47;;;28.40;97.50;;;;;;5074571;28;20302;-75
2022/06/20 08:16:23;;;;;;;13.63;5.40;;;28.40;97.80;;;;;;5076252;28;20217;-78
2022/06/20 08:18:51;;;;;;;17.77;5.97;;;28.40;99.30;;;;;;5074935;28;20290;-78
2022/06/20 08:21:25;;;;;;;16.50;5.80;;;28.50;99.90;;;;;;5075485;28;20226;-78
2022/06/20 08:23:59;;;;;;;18.17;5.73;;;28.30;99.80;;;;;;5071567;28;20657;-77
2022/06/20 08:26:32;;;;;;;15.50;5.53;;;28.30;99.90;;;;;;5071708;28;20783;-76
2022/06/20 08:29:06;;;;;;;16.03;5.50;;;28.40;99.90;;;;;;5075062;28;20294;-78
2022/06/20 08:31:38;;;;;;;12.03;5.00;;;28.30;99.90;;;;;;5074760;28;20203;-76
2022/06/20 08:34:14;;;;;;;15.60;5.27;;;28.40;99.90;;;;;;5071271;28;20231;-76
2022/06/20 08:36:51;;;;;;;13.93;5.20;;;28.50;99.90;;;;;;5074512;28;20218;-80
2022/06/20 08:39:25;;;;;;;16.37;5.23;;;28.60;99.90;;;;;;5072448;28;20703;-81
2022/06/20 08:42:26;;;;;;;12.10;4.97;;;28.70;99.90;;;;;;5071086;28;20239;-77
2022/06/20 08:45:42;;;;;;;13.80;5.20;;;28.60;99.10;;;;;;5068165;28;20282;-78
2022/06/20 08:48:35;;;;;;;16.63;5.77;;;28.50;98.80;;;;;;5071003;28;20290;-77
2022/06/20 08:51:31;;;;;;;13.67;5.50;;;28.40;99.80;;;;;;5065394;28;20296;-76
2022/06/20 08:54:32;;;;;;;16.80;5.30;;;28.20;98.60;;;;;;5075623;28;20211;-80
2022/06/20 08:57:12;;;;;;;14.27;5.40;;;28.00;98.60;;;;;;5074384;28;20664;-78
2022/06/20 09:00:03;;;;;;;15.40;5.57;;;27.80;98.40;;;;;;5067353;28;20287;-77
2022/06/20 09:03:18;;;;;;;12.00;5.23;;;27.70;98.60;;;;;;5078828;28;20653;-79
2022/06/20 09:06:15;;;;;;;28.10;5.90;;;28.10;98.30;;;;;;5073637;28;20203;-79
2022/06/20 09:09:03;;;;;;;15.63;5.33;;;28.70;98.10;;;;;;5059728;28;20295;-78
2022/06/20 09:11:48;;;;;;;16.42;5.25;;;29.60;97.00;;;;;;5075166;28;20257;-78
2022/06/20 09:14:50;;;;;;;13.95;4.72;;;30.60;95.40;;;;;;5078272;28;20253;-77
2022/06/20 09:17:26;;;;;;;16.77;5.00;;;30.90;94.00;;;;;;5066797;28;20249;-78
2022/06/20 09:20:05;;;;;;;18.50;5.55;;;31.50;92.20;;;;;;5084988;28;20198;-78
2022/06/20 09:22:53;;;;;;;13.80;5.05;;;31.50;94.10;;;;;;5077877;28;20265;-77
2022/06/20 09:25:32;;;;;;;14.05;5.47;;;31.20;91.10;;;;;;5081732;28;20199;-77
2022/06/20 09:28:16;;;;;;;17.35;5.60;;;30.90;91.70;;;;;;5078138;28;20231;-77
2022/06/20 09:30:55;;;;;;;11.60;5.00;;;30.80;92.00;;;;;;5080578;28;20204;-77
2022/06/20 09:33:43;;;;;;;13.20;5.00;;;30.60;89.70;;;;;;5083267;28;20214;-76
2022/06/20 09:36:47;;;;;;;18.02;5.18;;;30.60;91.30;;;;;;5079737;28;20203;-76
2022/06/20 09:39:47;;;;;;;14.15;5.05;;;31.30;93.30;;;;;;5083853;28;20207;-76
2022/06/20 09:42:25;;;;;;;14.98;4.47;;;32.80;89.80;;;;;;5083402;28;20230;-77
2022/06/20 09:45:15;;;;;;;16.98;4.65;;;34.00;83.90;;;;;;5070808;28;20210;-78
2022/06/20 09:47:59;;;;;;;11.63;4.45;;;34.70;82.70;;;;;;5087491;28;20199;-78
2022/06/20 09:50:47;;;;;;;14.48;4.72;;;34.90;79.60;;;;;;5087670;28;20204;-78
2022/06/20 09:53:35;;;;;;;14.60;4.55;;;34.80;80.60;;;;;;5088852;28;20214;-78
2022/06/20 09:56:12;;;;;;;12.88;4.32;;;34.70;79.50;;;;;;5082192;28;20289;-76
2022/06/20 09:58:49;;;;;;;13.23;4.35;;;35.50;78.10;;;;;;5077128;28;20211;-78
2022/06/20 10:01:27;;;;;;;17.38;4.70;;;36.30;73.60;;;;;;5080098;28;20207;-77
2022/06/20 10:04:04;;;;;;;10.80;4.40;;;36.50;73.60;;;;;;5081971;28;20207;-77
2022/06/20 10:06:46;;;;;;;11.20;4.65;;;35.50;73.20;;;;;;5070994;28;20624;-78
2022/06/20 10:09:22;;;;;;;12.45;4.70;;;35.30;75.10;;;;;;5073163;28;20293;-78
2022/06/20 10:11:59;;;;;;;15.95;4.30;;;35.20;72.90;;;;;;5073485;28;20608;-76
2022/06/20 10:14:40;;;;;;;14.65;4.80;;;34.70;74.40;;;;;;5070630;28;20222;-77
2022/06/20 10:17:40;;;;;;;9.93;4.50;;;35.00;71.50;;;;;;5076702;28;20227;-77
2022/06/20 10:20:22;;;;;;;12.07;4.93;;;34.30;74.70;;;;;;5074649;28;20289;-77
2022/06/20 10:22:55;;;;;;;14.43;4.88;;;33.30;77.80;;;;;;5082768;28;20432;-77
2022/06/20 10:25:53;;;;;;;10.05;4.63;;;32.20;81.70;;;;;;5075080;28;20302;-77
2022/06/20 10:28:30;;;;;;;15.05;5.15;;;31.50;82.40;;;;;;5073198;28;20210;-77
2022/06/20 10:31:08;;;;;;;10.43;4.20;;;31.10;83.90;;;;;;5068938;28;20330;-77
2022/06/20 10:33:48;;;;;;;9.48;4.20;;;30.70;82.30;;;;;;5071938;28;20559;-77
2022/06/20 10:36:21;;;;;;;12.30;4.38;;;30.40;81.00;;;;;;5084851;28;20746;-76
2022/06/20 10:39:10;;;;;;;12.10;4.15;;;30.10;84.20;;;;;;5082502;28;20213;-79
2022/06/20 10:41:48;;;;;;;12.95;3.85;;;30.40;90.50;;;;;;5068667;28;20330;-76
2022/06/20 10:44:23;;;;;;;10.18;3.72;;;31.20;90.20;;;;;;5080887;28;20210;-77
2022/06/20 10:47:00;;;;;;;12.73;3.95;;;31.90;83.00;;;;;;5058392;28;20226;-78
2022/06/20 10:49:51;;;;;;;11.20;3.50;;;33.10;85.00;;;;;;5068725;28;20285;-79
2022/06/20 10:52:51;;;;;;;9.82;4.13;;;33.70;81.20;;;;;;5074029;28;20243;-77
2022/06/20 10:55:33;;;;;;;11.73;4.20;;;34.40;78.10;;;;;;5071064;28;20225;-77
2022/06/20 10:58:13;;;;;;;9.75;3.95;;;35.10;76.80;;;;;;5068509;28;20238;-76
2022/06/20 11:00:48;;;;;;;10.32;4.28;;;34.30;78.30;;;;;;5074178;28;20287;-76
2022/06/20 11:03:50;;;;;;;10.32;4.05;;;34.20;75.00;;;;;;5072274;28;20273;-77
2022/06/20 11:06:28;;;;;;;12.18;3.70;;;33.90;74.40;;;;;;5065767;28;20272;-75
2022/06/20 11:09:06;;;;;;;11.02;3.88;;;33.80;75.90;;;;;;5072229;28;20238;-74
2022/06/20 11:11:44;;;;;;;10.45;3.90;;;34.50;72.90;;;;;;5072215;28;20257;-79
2022/06/20 11:14:21;;;;;;;8.98;3.85;;;34.30;69.40;;;;;;5073121;28;20260;-78
2022/06/20 11:17:02;;;;;;;9.07;3.95;;;34.20;75.10;;;;;;5074109;28;20732;-80
2022/06/20 11:19:41;;;;;;;10.90;3.80;;;34.60;71.00;;;;;;5073161;28;20225;-73
2022/06/20 11:22:34;;;;;;;18.42;4.32;;;34.90;69.80;;;;;;5070966;28;20250;-78
2022/06/20 11:25:18;;;;;;;13.63;4.32;;;35.30;74.60;;;;;;5067815;28;20585;-76
2022/06/20 11:28:22;;;;;;;11.13;3.90;;;35.80;70.80;;;;;;5077019;28;20666;-77
2022/06/20 11:30:57;;;;;;;10.70;3.90;;;35.60;67.90;;;;;;5032425;28;20210;-76
2022/06/20 11:36:32;;;;;;;7.53;3.30;;;35.80;71.30;;;;;;5078594;28;20211;-77
2022/06/20 11:39:12;;;;;;;8.23;3.65;;;35.80;69.20;;;;;;5078584;28;20202;-77
2022/06/20 11:41:50;;;;;;;17.67;4.32;;;35.40;71.70;;;;;;5075554;28;20285;-76
2022/06/20 11:44:44;;;;;;;11.88;3.88;;;34.70;69.00;;;;;;5078237;28;20260;-77
2022/06/20 11:47:49;;;;;;;12.48;3.70;;;34.10;73.40;;;;;;5076200;28;20227;-76
2022/06/20 11:50:37;;;;;;;12.48;4.07;;;33.80;68.20;;;;;;5072109;28;20683;-77
2022/06/20 11:53:24;;;;;;;9.10;3.60;;;33.30;71.00;;;;;;5072712;28;20204;-76
2022/06/20 11:56:02;;;;;;;9.35;3.47;;;33.10;71.90;;;;;;5065500;28;20227;-76
2022/06/20 11:58:53;;;;;;;10.93;3.33;;;33.00;69.80;;;;;;5060578;28;20210;-76
2022/06/20 12:01:27;;;;;;;10.45;4.10;;;33.00;70.00;;;;;;5072369;28;20253;-78
2022/06/20 12:04:04;;;;;;;6.40;3.20;;;33.00;75.50;;;;;;5072243;28;20204;-81
2022/06/20 12:06:39;;;;;;;7.30;3.22;;;33.10;72.70;;;;;;5083229;28;20614;-78
2022/06/20 12:09:15;;;;;;;8.82;3.63;;;33.20;71.70;;;;;;5078437;28;20230;-76
2022/06/20 12:11:57;;;;;;;15.70;4.15;;;33.10;72.90;;;;;;5071017;28;20203;-76
2022/06/20 12:14:36;;;;;;;12.02;3.95;;;33.00;70.50;;;;;;5079107;28;20291;-78
2022/06/20 12:17:20;;;;;;;10.90;3.75;;;33.00;71.60;;;;;;5074652;28;20246;-79
2022/06/20 12:25:51;;;;;;;6.50;3.60;;;32.30;72.30;;;;;;5071193;28;20311;-78
2022/06/20 12:28:22;;;;;;;10.90;3.90;;;32.50;74.90;;;;;;5080745;28;20208;-77
2022/06/20 12:30:58;;;;;;;8.18;3.00;;;32.70;71.80;;;;;;5081785;28;20203;-78
2022/06/20 12:33:28;;;;;;;9.70;3.40;;;32.70;73.30;;;;;;5081113;28;20301;-77
2022/06/20 12:36:01;;;;;;;9.15;3.70;;;32.90;70.50;;;;;;5067174;28;20223;-81
2022/06/20 12:38:39;;;;;;;8.35;3.67;;;33.20;72.10;;;;;;5079676;28;20241;-75
2022/06/20 12:41:13;;;;;;;12.23;3.95;;;33.20;70.30;;;;;;5073048;28;20237;-76
2022/06/20 12:43:55;;;;;;;8.57;3.28;;;33.10;71.00;;;;;;5077290;28;20202;-77
2022/06/20 12:46:42;;;;;;;12.48;3.90;;;33.20;70.80;;;;;;5076427;28;20203;-78
2022/06/20 12:49:38;;;;;;;12.13;3.60;;;33.10;68.10;;;;;;5071192;28;20229;-77
2022/06/20 12:52:16;;;;;;;10.75;3.63;;;33.00;71.70;;;;;;5073558;28;20274;-74
2022/06/20 12:55:08;;;;;;;7.80;3.50;;;32.80;70.20;;;;;;5073683;28;20291;-76
2022/06/20 12:58:09;;;;;;;9.75;3.95;;;32.60;73.80;;;;;;5075579;28;20258;-78
2022/06/20 13:00:46;;;;;;;9.10;3.55;;;32.60;73.40;;;;;;5074007;28;20218;-76
2022/06/20 13:03:56;;;;;;;10.77;3.90;;;32.50;71.50;;;;;;5074968;28;20198;-76
2022/06/20 13:06:51;;;;;;;9.13;3.80;;;32.30;73.10;;;;;;5074975;28;20711;-74
2022/06/20 13:09:49;;;;;;;7.22;3.72;;;32.50;72.40;;;;;;5074914;28;20204;-74
2022/06/20 13:12:34;;;;;;;9.02;3.75;;;32.60;75.10;;;;;;5064106;28;20203;-73
2022/06/20 13:15:38;;;;;;;8.38;3.50;;;32.60;73.90;;;;;;5077084;28;20217;-74
2022/06/20 13:18:25;;;;;;;9.20;3.75;;;32.70;73.30;;;;;;5079324;28;20218;-74
2022/06/20 13:21:00;;;;;;;6.50;3.58;;;32.60;73.50;;;;;;5074188;28;20235;-73
2022/06/20 13:23:51;;;;;;;10.95;3.47;;;32.70;74.20;;;;;;5076845;28;20203;-75
2022/06/20 13:26:31;;;;;;;11.77;3.88;;;32.80;73.40;;;;;;5070833;28;20693;-74
2022/06/20 13:29:17;;;;;;;7.85;3.72;;;32.60;70.10;;;;;;5081765;28;20667;-75
2022/06/20 13:31:51;;;;;;;9.95;3.95;;;32.20;70.80;;;;;;5074506;28;20253;-74
2022/06/20 13:34:23;;;;;;;9.23;3.63;;;32.50;73.40;;;;;;5065041;28;20285;-76
2022/06/20 13:36:59;;;;;;;8.45;3.35;;;32.30;71.40;;;;;;5076038;28;20316;-74
2022/06/20 13:39:37;;;;;;;13.90;4.07;;;31.70;74.20;;;;;;5071977;28;20207;-74
2022/06/20 13:42:17;;;;;;;16.50;4.50;;;32.00;74.30;;;;;;5076556;28;20287;-74